• Join FlightAware (Why Join?)
  • Login
  • US Flag 
09:55AM EDT


 

Airport Tracker/Info


-or-


 

Live Flight TrackerFlight Track Log ✈ TSU361 ✈ 25-Nov-2013 ✈ KELP - KELP

Flight Track Log - Related Links

Times and Time Zones

All times are in EST time to prevent confusion due to time zone crossing. See the TSU361 flight status page for this flight to view local times or setup timezone preferences in your user account.

Time Position Orientation Groundspeed Altitude Reporting Facility
EST Latitude Longitude Course Direction KTS MPH feet Rate Location/Type
08:23PM 31.8033 -106.3975 178° South 159 183 4,500  Level Albuquerque Center
08:24PM 31.7603 -106.3958 178° South 227 261 6,400 1,980 Climbing Albuquerque Center
08:25PM 31.7578 -106.3603 95° East 205 236 7,600 1,560 Climbing Albuquerque Center
08:25PM 31.7753 -106.3369 49° Northeast 215 247 8,000 240 Climbing Albuquerque Center
08:26PM 31.7992 -106.3097 44° Northeast 213 245 7,900  Descending Albuquerque Center
08:26PM 31.8122 -106.2928 48° Northeast 203 234 8,000 -120 Climbing Albuquerque Center
08:27PM 31.8225 -106.2558 72° East 198 228 7,800  Descending Albuquerque Center
08:27PM 31.8108 -106.2383 128° Southeast 195 224 8,000 60 Climbing Albuquerque Center
08:28PM 31.7839 -106.2125 141° Southeast 194 223 7,900 -120 Descending Albuquerque Center
08:28PM 31.7853 -106.1922 85° East 183 211 7,900  Level Albuquerque Center
08:29PM 31.8150 -106.2147 327° Northwest 178 205 7,900  Level Albuquerque Center
08:30PM 31.8103 -106.2658 264° West 195 224 8,000 60 Climbing Albuquerque Center
08:30PM 31.8100 -106.2808 269° West 204 235 8,000 -120 Level Albuquerque Center
08:31PM 31.7883 -106.3178 235° Southwest 212 244 7,900  Descending Albuquerque Center
08:31PM 31.7711 -106.3131 167° South 211 243 8,000 60 Climbing Albuquerque Center
08:32PM 31.7611 -106.2764 108° East 189 217 8,000  Level Albuquerque Center
08:32PM 31.7636 -106.2600 80° East 166 191 8,000 -120 Level Albuquerque Center
08:33PM 31.7642 -106.2258 89° East 158 182 7,900  Descending Albuquerque Center
08:33PM 31.7650 -106.2097 87° East 119 137 8,000 60 Climbing Albuquerque Center
08:34PM 31.7756 -106.1883 60° Northeast 141 162 8,000  Level Albuquerque Center
08:34PM 31.7847 -106.1897 353° North 131 151 8,000 -120 Level Albuquerque Center
08:35PM 31.7931 -106.2228 287° West 123 142 7,900  Descending Albuquerque Center
08:36PM 31.7911 -106.2597 266° West 144 166 8,000 60 Climbing Albuquerque Center
08:36PM 31.7894 -106.2736 262° West 174 200 8,000 -120 Level Albuquerque Center
08:37PM 31.7575 -106.2864 199° South 128 147 7,900 -60 Descending Albuquerque Center
08:38PM 31.7328 -106.2478 127° Southeast 172 198 7,900  Level Albuquerque Center
08:38PM 31.7358 -106.2369 72° East 183 211 7,900 -720 Level Albuquerque Center
08:39PM 31.7661 -106.2117 35° Northeast 166 191 7,200 -840 Descending Albuquerque Center
08:39PM 31.7731 -106.2078 25° Northeast 156 180 7,100 -240 Descending Albuquerque Center
08:40PM 31.7994 -106.1828 39° Northeast 150 173 7,000  Descending Albuquerque Center
08:40PM 31.8058 -106.1769 38° Northeast 156 180 7,100  Climbing Albuquerque Center
08:41PM 31.8369 -106.1717 North 163 188 7,000  Descending Albuquerque Center
08:41PM 31.8400 -106.1758 311° West 169 194 7,100 60 Climbing Albuquerque Center
08:42PM 31.8694 -106.2086 317° Northwest 164 189 7,100 -120 Level Albuquerque Center
08:42PM 31.8681 -106.2083 170° South 160 184 7,000 -240 Descending Albuquerque Center
08:43PM 31.9053 -106.2419 323° Northwest 171 197 6,900 -240 Descending Albuquerque Center
08:43PM 31.9064 -106.2458 289° West 167 192 6,800 -1,080 Descending Albuquerque Center
08:44PM 31.8797 -106.2906 235° Southwest 198 228 5,700 -1,080 Descending Albuquerque Center
08:45PM 31.8472 -106.3356 230° Southwest 135 155 4,700 -840 Descending Albuquerque Center
08:46PM 31.8228 -106.3686 229° Southwest 126 145 4,000 120 Descending Albuquerque Center
08:47PM 31.7883 -106.4089 225° Southwest 197 227 5,000 1,200 Climbing Albuquerque Center
08:48PM 31.7525 -106.3753 141° Southeast 223 257 6,500 720 Climbing Albuquerque Center
08:49PM 31.7469 -106.3092 96° East 209 241 6,400  Descending Albuquerque Center
08:50PM 31.7681 -106.2614 63° Northeast 164 189 6,500  Climbing Albuquerque Center
08:51PM 31.7931 -106.2228 53° Northeast 159 183 6,500  Level Albuquerque Center
08:52PM 31.8264 -106.1717 52° Northeast 166 191 6,500  Level Albuquerque Center
08:53PM 31.8636 -106.1775 352° North 162 186 6,500  Level Albuquerque Center
08:54PM 31.9075 -106.2064 331° Northwest 158 182 6,500  Level Albuquerque Center
08:55PM 31.9194 -106.2486 288° West 180 207 6,500 -240 Level Albuquerque Center
08:56PM 31.8878 -106.2739 214° Southwest 166 191 6,100 -660 Descending Albuquerque Center
08:57PM 31.8653 -106.3147 237° Southwest 130 150 5,300 -840 Descending Albuquerque Center
08:58PM 31.8406 -106.3433 225° Southwest 131 151 4,600  Descending Albuquerque Center
09:07PM 31.7622 -106.3828 142° Southeast 174 200 5,400 180 Climbing Albuquerque Center
09:08PM 31.7528 -106.3303 102° East 171 197 6,600 720 Climbing Albuquerque Center
09:09PM 31.7472 -106.2642 96° East 186 214 7,000 180 Climbing Albuquerque Center
09:10PM 31.7472 -106.2067 90° East 183 211 7,000 -60 Level Albuquerque Center
09:11PM 31.7611 -106.1533 73° East 193 222 6,900 -120 Descending Albuquerque Center
09:12PM 31.8042 -106.1550 358° North 174 200 6,800 -180 Descending Albuquerque Center
09:12PM 31.8142 -106.2100 282° West 204 235 6,600 -660 Descending Albuquerque Center
09:13PM 31.8136 -106.2650 269° West 168 193 5,600 -900 Descending Albuquerque Center
09:14PM 31.8094 -106.3136 264° West 148 170 4,800 -420 Descending Albuquerque Center
09:16PM 31.7969 -106.3742 256° West 127 146 4,600 240 Descending Albuquerque Center
09:17PM 31.7722 -106.3903 209° Southwest 154 177 5,400 1,020 Climbing Albuquerque Center
09:18PM 31.7411 -106.3481 131° Southeast 173 199 6,500 900 Climbing Albuquerque Center
09:19PM 31.7267 -106.2917 107° East 191 220 7,300 420 Climbing Albuquerque Center
09:20PM 31.7328 -106.2328 83° East 173 199 7,500 -60 Climbing Albuquerque Center
09:21PM 31.7561 -106.1969 53° Northeast 157 181 7,200 -300 Descending Albuquerque Center
09:22PM 31.7856 -106.1594 47° Northeast 166 191 7,000 -120 Descending Albuquerque Center
09:23PM 31.8233 -106.1325 31° Northeast 166 191 7,000  Level Albuquerque Center
09:24PM 31.8631 -106.1150 21° North 157 181 7,000  Level Albuquerque Center
09:25PM 31.9067 -106.1092 North 160 184 7,000 -60 Level Albuquerque Center
09:26PM 31.9378 -106.1389 321° Northwest 157 181 6,900 -360 Descending Albuquerque Center
09:27PM 31.9497 -106.1933 285° West 200 230 6,400 -600 Descending Albuquerque Center
09:28PM 31.9125 -106.2453 230° Southwest 224 258 5,800 -360 Descending Albuquerque Center
09:29PM 31.8739 -106.2925 226° Southwest 175 201 5,700 -600 Descending Albuquerque Center
09:30PM 31.8506 -106.3283 233° Southwest 119 137 4,700 -540 Descending Albuquerque Center
09:31PM 31.8136 -106.3250 176° South 116 133 4,600 -300 Descending Albuquerque Center
09:32PM 31.7997 -106.3533 240° Southwest 121 139 4,100 -600 Descending Albuquerque Center